sensor_id;sensor_type;location;lat;lon;timestamp;P1;durP1;ratioP1;P2;durP2;ratioP2
5807;SDS011;2930;42.678;23.312;2023-04-03T00:01:35;0.43;;;0.43;;
5807;SDS011;2930;42.678;23.312;2023-04-03T00:04:03;0.50;;;0.50;;
5807;SDS011;2930;42.678;23.312;2023-04-03T00:06:30;0.67;;;0.63;;
5807;SDS011;2930;42.678;23.312;2023-04-03T00:08:56;0.60;;;0.50;;
5807;SDS011;2930;42.678;23.312;2023-04-03T00:11:21;0.60;;;0.60;;
5807;SDS011;2930;42.678;23.312;2023-04-03T00:13:47;0.47;;;0.47;;
5807;SDS011;2930;42.678;23.312;2023-04-03T00:16:12;0.50;;;0.50;;
5807;SDS011;2930;42.678;23.312;2023-04-03T00:18:39;0.70;;;0.70;;
5807;SDS011;2930;42.678;23.312;2023-04-03T00:21:05;1.10;;;1.00;;
5807;SDS011;2930;42.678;23.312;2023-04-03T00:23:32;1.67;;;0.70;;
5807;SDS011;2930;42.678;23.312;2023-04-03T00:25:57;1.40;;;1.10;;
5807;SDS011;2930;42.678;23.312;2023-04-03T00:28:23;1.13;;;1.13;;
5807;SDS011;2930;42.678;23.312;2023-04-03T00:30:49;1.67;;;1.03;;
5807;SDS011;2930;42.678;23.312;2023-04-03T00:33:15;1.07;;;1.07;;
5807;SDS011;2930;42.678;23.312;2023-04-03T00:35:41;1.37;;;1.30;;
5807;SDS011;2930;42.678;23.312;2023-04-03T00:38:07;1.43;;;1.27;;
5807;SDS011;2930;42.678;23.312;2023-04-03T00:40:37;0.97;;;0.93;;
5807;SDS011;2930;42.678;23.312;2023-04-03T00:43:14;0.83;;;0.83;;
5807;SDS011;2930;42.678;23.312;2023-04-03T00:45:47;0.70;;;0.70;;
5807;SDS011;2930;42.678;23.312;2023-04-03T00:48:15;0.67;;;0.67;;
5807;SDS011;2930;42.678;23.312;2023-04-03T00:50:45;1.03;;;1.03;;
5807;SDS011;2930;42.678;23.312;2023-04-03T00:53:13;1.40;;;1.00;;
5807;SDS011;2930;42.678;23.312;2023-04-03T00:55:42;0.70;;;0.63;;
5807;SDS011;2930;42.678;23.312;2023-04-03T00:58:09;1.20;;;1.10;;
5807;SDS011;2930;42.678;23.312;2023-04-03T01:00:37;1.07;;;0.93;;
5807;SDS011;2930;42.678;23.312;2023-04-03T01:03:07;2.70;;;1.20;;
5807;SDS011;2930;42.678;23.312;2023-04-03T01:05:32;2.07;;;1.30;;
5807;SDS011;2930;42.678;23.312;2023-04-03T01:07:58;1.60;;;1.50;;
5807;SDS011;2930;42.678;23.312;2023-04-03T01:10:25;1.03;;;1.03;;
5807;SDS011;2930;42.678;23.312;2023-04-03T01:12:51;1.17;;;1.10;;
5807;SDS011;2930;42.678;23.312;2023-04-03T01:15:21;1.17;;;1.17;;
5807;SDS011;2930;42.678;23.312;2023-04-03T01:17:52;0.97;;;0.97;;
5807;SDS011;2930;42.678;23.312;2023-04-03T01:25:40;1.37;;;1.00;;
5807;SDS011;2930;42.678;23.312;2023-04-03T01:28:07;0.53;;;0.47;;
5807;SDS011;2930;42.678;23.312;2023-04-03T01:30:35;1.03;;;0.60;;
5807;SDS011;2930;42.678;23.312;2023-04-03T01:33:11;0.50;;;0.50;;
5807;SDS011;2930;42.678;23.312;2023-04-03T01:35:37;0.43;;;0.43;;
5807;SDS011;2930;42.678;23.312;2023-04-03T01:38:03;0.40;;;0.40;;
5807;SDS011;2930;42.678;23.312;2023-04-03T01:40:28;0.33;;;0.33;;
5807;SDS011;2930;42.678;23.312;2023-04-03T01:42:54;0.40;;;0.40;;
5807;SDS011;2930;42.678;23.312;2023-04-03T01:45:20;0.40;;;0.40;;
5807;SDS011;2930;42.678;23.312;2023-04-03T01:47:45;0.40;;;0.40;;
5807;SDS011;2930;42.678;23.312;2023-04-03T01:50:11;0.70;;;0.70;;
5807;SDS011;2930;42.678;23.312;2023-04-03T01:52:37;0.57;;;0.57;;
5807;SDS011;2930;42.678;23.312;2023-04-03T01:55:02;0.43;;;0.43;;
5807;SDS011;2930;42.678;23.312;2023-04-03T01:57:28;0.77;;;0.40;;
5807;SDS011;2930;42.678;23.312;2023-04-03T01:59:54;0.37;;;0.33;;
5807;SDS011;2930;42.678;23.312;2023-04-03T02:02:20;0.60;;;0.60;;
5807;SDS011;2930;42.678;23.312;2023-04-03T02:04:45;1.30;;;0.40;;
5807;SDS011;2930;42.678;23.312;2023-04-03T02:07:11;0.53;;;0.50;;
5807;SDS011;2930;42.678;23.312;2023-04-03T02:09:37;1.07;;;0.97;;
5807;SDS011;2930;42.678;23.312;2023-04-03T02:12:02;0.40;;;0.40;;
5807;SDS011;2930;42.678;23.312;2023-04-03T02:14:28;0.27;;;0.27;;
5807;SDS011;2930;42.678;23.312;2023-04-03T02:16:54;0.30;;;0.30;;
5807;SDS011;2930;42.678;23.312;2023-04-03T02:19:20;1.40;;;0.40;;
5807;SDS011;2930;42.678;23.312;2023-04-03T02:21:45;0.30;;;0.30;;
5807;SDS011;2930;42.678;23.312;2023-04-03T02:24:11;0.40;;;0.40;;
5807;SDS011;2930;42.678;23.312;2023-04-03T02:26:37;3.70;;;0.73;;
5807;SDS011;2930;42.678;23.312;2023-04-03T02:29:02;0.60;;;0.60;;
5807;SDS011;2930;42.678;23.312;2023-04-03T02:31:28;0.50;;;0.50;;
5807;SDS011;2930;42.678;23.312;2023-04-03T02:33:54;0.50;;;0.50;;
5807;SDS011;2930;42.678;23.312;2023-04-03T02:36:19;0.30;;;0.30;;
5807;SDS011;2930;42.678;23.312;2023-04-03T02:38:45;0.40;;;0.40;;
5807;SDS011;2930;42.678;23.312;2023-04-03T02:41:11;0.53;;;0.43;;
5807;SDS011;2930;42.678;23.312;2023-04-03T02:43:38;0.73;;;0.60;;
5807;SDS011;2930;42.678;23.312;2023-04-03T02:46:04;0.40;;;0.40;;
5807;SDS011;2930;42.678;23.312;2023-04-03T02:48:30;0.77;;;0.50;;
5807;SDS011;2930;42.678;23.312;2023-04-03T02:50:56;0.60;;;0.60;;
5807;SDS011;2930;42.678;23.312;2023-04-03T02:53:22;0.43;;;0.43;;
5807;SDS011;2930;42.678;23.312;2023-04-03T02:55:47;0.50;;;0.50;;
5807;SDS011;2930;42.678;23.312;2023-04-03T02:58:13;3.17;;;1.00;;
5807;SDS011;2930;42.678;23.312;2023-04-03T03:00:39;0.57;;;0.57;;
5807;SDS011;2930;42.678;23.312;2023-04-03T03:03:05;0.33;;;0.33;;
5807;SDS011;2930;42.678;23.312;2023-04-03T03:05:31;0.60;;;0.60;;
5807;SDS011;2930;42.678;23.312;2023-04-03T03:07:57;0.37;;;0.37;;
5807;SDS011;2930;42.678;23.312;2023-04-03T03:10:23;0.80;;;0.80;;
5807;SDS011;2930;42.678;23.312;2023-04-03T03:12:49;1.37;;;0.70;;
5807;SDS011;2930;42.678;23.312;2023-04-03T03:15:15;0.40;;;0.40;;
5807;SDS011;2930;42.678;23.312;2023-04-03T03:17:42;1.23;;;0.60;;
5807;SDS011;2930;42.678;23.312;2023-04-03T03:20:08;1.67;;;0.67;;
5807;SDS011;2930;42.678;23.312;2023-04-03T03:22:34;0.77;;;0.77;;
5807;SDS011;2930;42.678;23.312;2023-04-03T03:25:01;0.50;;;0.50;;
5807;SDS011;2930;42.678;23.312;2023-04-03T03:27:27;0.57;;;0.57;;
5807;SDS011;2930;42.678;23.312;2023-04-03T03:29:53;0.40;;;0.40;;
5807;SDS011;2930;42.678;23.312;2023-04-03T03:32:19;1.13;;;0.33;;
5807;SDS011;2930;42.678;23.312;2023-04-03T03:34:45;0.40;;;0.40;;
5807;SDS011;2930;42.678;23.312;2023-04-03T03:37:10;0.67;;;0.50;;
5807;SDS011;2930;42.678;23.312;2023-04-03T03:39:37;0.50;;;0.50;;
5807;SDS011;2930;42.678;23.312;2023-04-03T03:42:02;0.47;;;0.47;;
5807;SDS011;2930;42.678;23.312;2023-04-03T03:44:28;0.30;;;0.30;;
5807;SDS011;2930;42.678;23.312;2023-04-03T03:46:55;0.70;;;0.70;;
5807;SDS011;2930;42.678;23.312;2023-04-03T03:49:21;0.43;;;0.43;;
5807;SDS011;2930;42.678;23.312;2023-04-03T03:51:47;0.67;;;0.67;;
5807;SDS011;2930;42.678;23.312;2023-04-03T03:54:13;1.60;;;0.83;;
5807;SDS011;2930;42.678;23.312;2023-04-03T03:56:39;1.13;;;0.63;;
5807;SDS011;2930;42.678;23.312;2023-04-03T03:59:05;1.47;;;0.77;;
5807;SDS011;2930;42.678;23.312;2023-04-03T04:01:30;0.60;;;0.60;;
5807;SDS011;2930;42.678;23.312;2023-04-03T04:03:56;0.90;;;0.80;;
5807;SDS011;2930;42.678;23.312;2023-04-03T04:06:22;1.53;;;0.63;;
5807;SDS011;2930;42.678;23.312;2023-04-03T04:08:48;0.97;;;0.97;;
5807;SDS011;2930;42.678;23.312;2023-04-03T04:11:14;0.90;;;0.90;;
5807;SDS011;2930;42.678;23.312;2023-04-03T04:13:40;0.97;;;0.80;;
5807;SDS011;2930;42.678;23.312;2023-04-03T04:16:06;1.80;;;1.27;;
5807;SDS011;2930;42.678;23.312;2023-04-03T04:18:32;1.13;;;1.13;;
5807;SDS011;2930;42.678;23.312;2023-04-03T04:20:58;1.50;;;0.70;;
5807;SDS011;2930;42.678;23.312;2023-04-03T04:23:24;1.10;;;0.97;;
5807;SDS011;2930;42.678;23.312;2023-04-03T04:25:50;0.60;;;0.60;;
5807;SDS011;2930;42.678;23.312;2023-04-03T04:28:16;1.13;;;1.03;;
5807;SDS011;2930;42.678;23.312;2023-04-03T04:30:42;2.23;;;1.20;;
5807;SDS011;2930;42.678;23.312;2023-04-03T04:33:08;3.00;;;0.87;;
5807;SDS011;2930;42.678;23.312;2023-04-03T04:35:34;1.90;;;0.77;;
5807;SDS011;2930;42.678;23.312;2023-04-03T04:37:59;0.80;;;0.73;;
5807;SDS011;2930;42.678;23.312;2023-04-03T04:40:25;0.93;;;0.93;;
5807;SDS011;2930;42.678;23.312;2023-04-03T04:42:51;0.80;;;0.80;;
5807;SDS011;2930;42.678;23.312;2023-04-03T04:45:17;1.37;;;1.00;;
5807;SDS011;2930;42.678;23.312;2023-04-03T04:47:43;0.97;;;0.97;;
5807;SDS011;2930;42.678;23.312;2023-04-03T04:50:09;1.50;;;1.40;;
5807;SDS011;2930;42.678;23.312;2023-04-03T04:52:34;1.57;;;1.47;;
5807;SDS011;2930;42.678;23.312;2023-04-03T04:55:00;1.30;;;0.73;;
5807;SDS011;2930;42.678;23.312;2023-04-03T04:57:26;1.33;;;1.30;;
5807;SDS011;2930;42.678;23.312;2023-04-03T04:59:52;1.33;;;1.23;;
5807;SDS011;2930;42.678;23.312;2023-04-03T05:02:17;0.90;;;0.90;;
5807;SDS011;2930;42.678;23.312;2023-04-03T05:04:43;7.83;;;1.30;;
5807;SDS011;2930;42.678;23.312;2023-04-03T05:07:09;0.87;;;0.87;;
5807;SDS011;2930;42.678;23.312;2023-04-03T05:09:35;1.17;;;1.17;;
5807;SDS011;2930;42.678;23.312;2023-04-03T05:12:00;1.60;;;1.20;;
5807;SDS011;2930;42.678;23.312;2023-04-03T05:14:27;0.73;;;0.73;;
5807;SDS011;2930;42.678;23.312;2023-04-03T05:16:53;1.53;;;1.43;;
5807;SDS011;2930;42.678;23.312;2023-04-03T05:19:19;1.40;;;1.40;;
5807;SDS011;2930;42.678;23.312;2023-04-03T05:21:46;1.30;;;1.30;;
5807;SDS011;2930;42.678;23.312;2023-04-03T05:24:12;2.63;;;0.93;;
5807;SDS011;2930;42.678;23.312;2023-04-03T05:26:38;1.33;;;1.23;;
5807;SDS011;2930;42.678;23.312;2023-04-03T05:29:04;7.23;;;1.27;;
5807;SDS011;2930;42.678;23.312;2023-04-03T05:31:30;3.90;;;1.17;;
5807;SDS011;2930;42.678;23.312;2023-04-03T05:33:55;1.07;;;0.93;;
5807;SDS011;2930;42.678;23.312;2023-04-03T05:36:21;2.60;;;1.93;;
5807;SDS011;2930;42.678;23.312;2023-04-03T05:38:47;3.73;;;1.77;;
5807;SDS011;2930;42.678;23.312;2023-04-03T05:41:13;1.87;;;1.77;;
5807;SDS011;2930;42.678;23.312;2023-04-03T05:43:39;1.33;;;1.33;;
5807;SDS011;2930;42.678;23.312;2023-04-03T05:46:09;1.77;;;1.67;;
5807;SDS011;2930;42.678;23.312;2023-04-03T05:48:40;2.40;;;1.67;;
5807;SDS011;2930;42.678;23.312;2023-04-03T05:51:06;1.80;;;1.70;;
5807;SDS011;2930;42.678;23.312;2023-04-03T05:53:37;6.27;;;1.73;;
5807;SDS011;2930;42.678;23.312;2023-04-03T05:56:03;5.10;;;2.10;;
5807;SDS011;2930;42.678;23.312;2023-04-03T05:58:29;1.73;;;1.73;;
5807;SDS011;2930;42.678;23.312;2023-04-03T06:00:55;2.30;;;2.03;;
5807;SDS011;2930;42.678;23.312;2023-04-03T06:03:22;1.53;;;1.43;;
5807;SDS011;2930;42.678;23.312;2023-04-03T06:05:48;1.70;;;1.57;;
5807;SDS011;2930;42.678;23.312;2023-04-03T06:08:13;2.93;;;2.60;;
5807;SDS011;2930;42.678;23.312;2023-04-03T06:10:40;5.47;;;3.33;;
5807;SDS011;2930;42.678;23.312;2023-04-03T06:13:06;2.73;;;2.43;;
5807;SDS011;2930;42.678;23.312;2023-04-03T06:15:32;2.60;;;2.33;;
5807;SDS011;2930;42.678;23.312;2023-04-03T06:17:58;7.57;;;2.83;;
5807;SDS011;2930;42.678;23.312;2023-04-03T06:20:25;2.33;;;1.70;;
5807;SDS011;2930;42.678;23.312;2023-04-03T06:22:51;2.70;;;1.93;;
5807;SDS011;2930;42.678;23.312;2023-04-03T06:25:16;3.83;;;3.03;;
5807;SDS011;2930;42.678;23.312;2023-04-03T06:27:43;1.77;;;1.73;;
5807;SDS011;2930;42.678;23.312;2023-04-03T06:30:09;1.30;;;1.30;;
5807;SDS011;2930;42.678;23.312;2023-04-03T06:32:36;2.23;;;1.20;;
5807;SDS011;2930;42.678;23.312;2023-04-03T06:35:02;1.20;;;1.20;;
5807;SDS011;2930;42.678;23.312;2023-04-03T06:37:29;2.57;;;1.30;;
5807;SDS011;2930;42.678;23.312;2023-04-03T06:39:55;1.47;;;1.37;;
5807;SDS011;2930;42.678;23.312;2023-04-03T06:42:21;1.53;;;1.43;;
5807;SDS011;2930;42.678;23.312;2023-04-03T06:44:47;2.90;;;1.93;;
5807;SDS011;2930;42.678;23.312;2023-04-03T06:47:13;1.80;;;1.57;;
5807;SDS011;2930;42.678;23.312;2023-04-03T06:49:40;1.93;;;1.83;;
5807;SDS011;2930;42.678;23.312;2023-04-03T06:52:06;2.37;;;1.53;;
5807;SDS011;2930;42.678;23.312;2023-04-03T06:54:32;2.03;;;1.90;;
5807;SDS011;2930;42.678;23.312;2023-04-03T06:56:58;1.67;;;1.57;;
5807;SDS011;2930;42.678;23.312;2023-04-03T06:59:24;3.50;;;2.80;;
5807;SDS011;2930;42.678;23.312;2023-04-03T07:01:50;1.80;;;1.70;;
5807;SDS011;2930;42.678;23.312;2023-04-03T07:04:16;1.52;;;1.52;;
5807;SDS011;2930;42.678;23.312;2023-04-03T07:06:44;1.70;;;1.60;;
5807;SDS011;2930;42.678;23.312;2023-04-03T07:09:10;1.92;;;1.83;;
5807;SDS011;2930;42.678;23.312;2023-04-03T07:11:36;2.40;;;1.65;;
5807;SDS011;2930;42.678;23.312;2023-04-03T07:14:02;1.88;;;1.77;;
5807;SDS011;2930;42.678;23.312;2023-04-03T07:16:28;1.70;;;1.60;;
5807;SDS011;2930;42.678;23.312;2023-04-03T07:18:55;1.60;;;1.50;;
5807;SDS011;2930;42.678;23.312;2023-04-03T07:21:22;1.98;;;1.88;;
5807;SDS011;2930;42.678;23.312;2023-04-03T07:23:48;2.13;;;1.92;;
5807;SDS011;2930;42.678;23.312;2023-04-03T07:26:13;2.50;;;2.33;;
5807;SDS011;2930;42.678;23.312;2023-04-03T07:28:39;5.93;;;2.50;;
5807;SDS011;2930;42.678;23.312;2023-04-03T07:31:06;3.15;;;2.90;;
5807;SDS011;2930;42.678;23.312;2023-04-03T07:33:38;3.45;;;3.15;;
5807;SDS011;2930;42.678;23.312;2023-04-03T07:36:05;2.08;;;1.85;;
5807;SDS011;2930;42.678;23.312;2023-04-03T07:38:32;2.05;;;1.35;;
5807;SDS011;2930;42.678;23.312;2023-04-03T07:40:58;2.22;;;1.80;;
5807;SDS011;2930;42.678;23.312;2023-04-03T07:43:24;1.52;;;1.42;;
5807;SDS011;2930;42.678;23.312;2023-04-03T07:45:50;2.83;;;1.35;;
5807;SDS011;2930;42.678;23.312;2023-04-03T07:48:17;2.33;;;1.13;;
5807;SDS011;2930;42.678;23.312;2023-04-03T07:50:45;1.73;;;1.08;;
5807;SDS011;2930;42.678;23.312;2023-04-03T07:53:11;1.48;;;1.48;;
5807;SDS011;2930;42.678;23.312;2023-04-03T07:55:36;2.80;;;1.42;;
5807;SDS011;2930;42.678;23.312;2023-04-03T07:58:08;2.13;;;1.23;;
5807;SDS011;2930;42.678;23.312;2023-04-03T08:00:35;1.17;;;1.17;;
5807;SDS011;2930;42.678;23.312;2023-04-03T08:03:01;1.60;;;1.50;;
5807;SDS011;2930;42.678;23.312;2023-04-03T08:05:27;2.35;;;2.05;;
5807;SDS011;2930;42.678;23.312;2023-04-03T08:07:52;3.20;;;2.50;;
5807;SDS011;2930;42.678;23.312;2023-04-03T08:10:18;3.65;;;3.35;;
5807;SDS011;2930;42.678;23.312;2023-04-03T08:12:45;3.40;;;3.15;;
5807;SDS011;2930;42.678;23.312;2023-04-03T08:15:12;6.38;;;4.00;;
5807;SDS011;2930;42.678;23.312;2023-04-03T08:17:37;5.20;;;3.83;;
5807;SDS011;2930;42.678;23.312;2023-04-03T08:20:06;3.80;;;3.55;;
5807;SDS011;2930;42.678;23.312;2023-04-03T08:22:33;4.07;;;3.72;;
5807;SDS011;2930;42.678;23.312;2023-04-03T08:24:59;4.05;;;3.72;;
5807;SDS011;2930;42.678;23.312;2023-04-03T08:27:26;6.20;;;4.53;;
5807;SDS011;2930;42.678;23.312;2023-04-03T08:29:52;5.00;;;3.88;;
5807;SDS011;2930;42.678;23.312;2023-04-03T08:32:18;6.40;;;4.38;;
5807;SDS011;2930;42.678;23.312;2023-04-03T08:34:44;5.25;;;4.10;;
5807;SDS011;2930;42.678;23.312;2023-04-03T08:37:10;10.13;;;3.95;;
5807;SDS011;2930;42.678;23.312;2023-04-03T08:39:35;4.90;;;4.47;;
5807;SDS011;2930;42.678;23.312;2023-04-03T08:42:03;7.20;;;4.82;;
5807;SDS011;2930;42.678;23.312;2023-04-03T08:44:58;7.78;;;4.18;;
5807;SDS011;2930;42.678;23.312;2023-04-03T08:49:59;9.65;;;5.05;;
5807;SDS011;2930;42.678;23.312;2023-04-03T08:52:44;6.63;;;4.55;;
5807;SDS011;2930;42.678;23.312;2023-04-03T08:55:33;11.00;;;5.60;;
5807;SDS011;2930;42.678;23.312;2023-04-03T08:58:05;6.22;;;5.32;;
5807;SDS011;2930;42.678;23.312;2023-04-03T09:03:21;9.20;;;5.82;;
5807;SDS011;2930;42.678;23.312;2023-04-03T09:11:12;6.38;;;5.22;;
5807;SDS011;2930;42.678;23.312;2023-04-03T09:14:14;6.55;;;5.15;;
5807;SDS011;2930;42.678;23.312;2023-04-03T09:17:41;5.57;;;5.05;;
5807;SDS011;2930;42.678;23.312;2023-04-03T09:23:34;10.18;;;4.68;;
5807;SDS011;2930;42.678;23.312;2023-04-03T09:26:14;7.25;;;5.05;;
5807;SDS011;2930;42.678;23.312;2023-04-03T09:28:44;4.80;;;4.05;;
5807;SDS011;2930;42.678;23.312;2023-04-03T09:31:19;3.17;;;3.08;;
5807;SDS011;2930;42.678;23.312;2023-04-03T09:33:50;3.58;;;3.35;;
5807;SDS011;2930;42.678;23.312;2023-04-03T09:39:20;2.67;;;2.58;;
5807;SDS011;2930;42.678;23.312;2023-04-03T09:42:02;3.20;;;3.00;;
5807;SDS011;2930;42.678;23.312;2023-04-03T09:44:41;3.08;;;2.88;;
5807;SDS011;2930;42.678;23.312;2023-04-03T09:47:23;6.32;;;2.95;;
5807;SDS011;2930;42.678;23.312;2023-04-03T09:52:45;4.60;;;1.83;;
5807;SDS011;2930;42.678;23.312;2023-04-03T09:55:19;4.45;;;2.47;;
5807;SDS011;2930;42.678;23.312;2023-04-03T09:57:52;2.22;;;2.13;;
5807;SDS011;2930;42.678;23.312;2023-04-03T10:00:20;2.45;;;2.17;;
5807;SDS011;2930;42.678;23.312;2023-04-03T10:02:49;3.63;;;3.33;;
5807;SDS011;2930;42.678;23.312;2023-04-03T10:05:51;2.85;;;2.55;;
5807;SDS011;2930;42.678;23.312;2023-04-03T10:08:11;2.75;;;2.55;;
5807;SDS011;2930;42.678;23.312;2023-04-03T10:10:44;3.42;;;2.83;;
5807;SDS011;2930;42.678;23.312;2023-04-03T10:13:19;6.63;;;3.35;;
5807;SDS011;2930;42.678;23.312;2023-04-03T10:15:50;2.20;;;2.10;;
5807;SDS011;2930;42.678;23.312;2023-04-03T10:21:06;2.58;;;2.47;;
5807;SDS011;2930;42.678;23.312;2023-04-03T10:23:50;2.97;;;2.58;;
5807;SDS011;2930;42.678;23.312;2023-04-03T10:32:22;3.47;;;2.70;;
5807;SDS011;2930;42.678;23.312;2023-04-03T10:35:15;3.67;;;3.13;;
5807;SDS011;2930;42.678;23.312;2023-04-03T10:40:30;2.45;;;2.33;;
5807;SDS011;2930;42.678;23.312;2023-04-03T10:43:06;5.82;;;2.58;;
5807;SDS011;2930;42.678;23.312;2023-04-03T10:48:40;2.17;;;2.08;;
5807;SDS011;2930;42.678;23.312;2023-04-03T10:51:22;1.88;;;1.77;;
5807;SDS011;2930;42.678;23.312;2023-04-03T10:54:20;1.65;;;1.65;;
5807;SDS011;2930;42.678;23.312;2023-04-03T10:57:00;1.58;;;1.48;;
5807;SDS011;2930;42.678;23.312;2023-04-03T11:04:50;1.00;;;1.00;;
5807;SDS011;2930;42.678;23.312;2023-04-03T11:07:21;0.75;;;0.73;;
5807;SDS011;2930;42.678;23.312;2023-04-03T11:10:02;4.05;;;1.13;;
5807;SDS011;2930;42.678;23.312;2023-04-03T11:15:35;0.63;;;0.63;;
5807;SDS011;2930;42.678;23.312;2023-04-03T11:18:03;0.65;;;0.65;;
5807;SDS011;2930;42.678;23.312;2023-04-03T11:20:33;0.77;;;0.77;;
5807;SDS011;2930;42.678;23.312;2023-04-03T11:23:21;0.57;;;0.57;;
5807;SDS011;2930;42.678;23.312;2023-04-03T11:25:50;0.65;;;0.65;;
5807;SDS011;2930;42.678;23.312;2023-04-03T11:28:18;0.70;;;0.70;;
5807;SDS011;2930;42.678;23.312;2023-04-03T11:36:19;0.70;;;0.70;;
5807;SDS011;2930;42.678;23.312;2023-04-03T11:38:53;0.70;;;0.70;;
5807;SDS011;2930;42.678;23.312;2023-04-03T11:41:26;0.50;;;0.50;;
5807;SDS011;2930;42.678;23.312;2023-04-03T11:46:49;1.42;;;0.77;;
5807;SDS011;2930;42.678;23.312;2023-04-03T11:55:41;1.65;;;0.60;;
5807;SDS011;2930;42.678;23.312;2023-04-03T12:08:58;0.60;;;0.60;;
5807;SDS011;2930;42.678;23.312;2023-04-03T12:11:25;0.40;;;0.40;;
5807;SDS011;2930;42.678;23.312;2023-04-03T12:19:04;0.50;;;0.50;;
5807;SDS011;2930;42.678;23.312;2023-04-03T12:24:27;0.40;;;0.40;;
5807;SDS011;2930;42.678;23.312;2023-04-03T12:40:36;0.20;;;0.20;;
5807;SDS011;2930;42.678;23.312;2023-04-03T12:48:30;1.52;;;0.40;;
5807;SDS011;2930;42.678;23.312;2023-04-03T12:50:59;1.27;;;0.65;;
5807;SDS011;2930;42.678;23.312;2023-04-03T12:53:26;0.60;;;0.60;;
5807;SDS011;2930;42.678;23.312;2023-04-03T12:56:18;0.55;;;0.55;;
5807;SDS011;2930;42.678;23.312;2023-04-03T12:58:46;0.53;;;0.53;;
5807;SDS011;2930;42.678;23.312;2023-04-03T13:01:13;0.65;;;0.65;;
5807;SDS011;2930;42.678;23.312;2023-04-03T13:03:44;0.50;;;0.50;;
5807;SDS011;2930;42.678;23.312;2023-04-03T13:06:19;0.55;;;0.55;;
5807;SDS011;2930;42.678;23.312;2023-04-03T13:08:51;2.27;;;1.10;;
5807;SDS011;2930;42.678;23.312;2023-04-03T13:11:29;1.35;;;0.77;;
5807;SDS011;2930;42.678;23.312;2023-04-03T13:14:01;1.25;;;0.82;;
5807;SDS011;2930;42.678;23.312;2023-04-03T13:16:31;0.60;;;0.60;;
5807;SDS011;2930;42.678;23.312;2023-04-03T13:18:58;0.73;;;0.60;;
5807;SDS011;2930;42.678;23.312;2023-04-03T13:21:25;0.80;;;0.80;;
5807;SDS011;2930;42.678;23.312;2023-04-03T13:23:56;0.80;;;0.80;;
5807;SDS011;2930;42.678;23.312;2023-04-03T13:26:25;0.77;;;0.75;;
5807;SDS011;2930;42.678;23.312;2023-04-03T13:29:00;1.00;;;1.00;;
5807;SDS011;2930;42.678;23.312;2023-04-03T13:31:36;0.88;;;0.88;;
5807;SDS011;2930;42.678;23.312;2023-04-03T13:36:37;2.30;;;1.20;;
5807;SDS011;2930;42.678;23.312;2023-04-03T13:41:39;0.80;;;0.80;;
5807;SDS011;2930;42.678;23.312;2023-04-03T13:54:53;0.90;;;0.90;;
5807;SDS011;2930;42.678;23.312;2023-04-03T13:57:22;1.53;;;1.07;;
5807;SDS011;2930;42.678;23.312;2023-04-03T13:59:48;0.70;;;0.70;;
5807;SDS011;2930;42.678;23.312;2023-04-03T14:04:48;0.73;;;0.73;;
5807;SDS011;2930;42.678;23.312;2023-04-03T14:07:21;1.03;;;0.93;;
5807;SDS011;2930;42.678;23.312;2023-04-03T14:09:47;0.97;;;0.63;;
5807;SDS011;2930;42.678;23.312;2023-04-03T14:12:18;0.50;;;0.50;;
5807;SDS011;2930;42.678;23.312;2023-04-03T14:14:54;0.70;;;0.70;;
5807;SDS011;2930;42.678;23.312;2023-04-03T14:17:21;0.77;;;0.77;;
5807;SDS011;2930;42.678;23.312;2023-04-03T14:19:49;0.53;;;0.53;;
5807;SDS011;2930;42.678;23.312;2023-04-03T14:22:20;1.13;;;1.13;;
5807;SDS011;2930;42.678;23.312;2023-04-03T14:24:57;0.60;;;0.60;;
5807;SDS011;2930;42.678;23.312;2023-04-03T14:29:55;0.57;;;0.57;;
5807;SDS011;2930;42.678;23.312;2023-04-03T14:32:22;0.57;;;0.57;;
5807;SDS011;2930;42.678;23.312;2023-04-03T14:34:49;0.60;;;0.60;;
5807;SDS011;2930;42.678;23.312;2023-04-03T14:37:17;0.73;;;0.73;;
5807;SDS011;2930;42.678;23.312;2023-04-03T14:39:45;1.97;;;0.83;;
5807;SDS011;2930;42.678;23.312;2023-04-03T14:42:22;0.60;;;0.60;;
5807;SDS011;2930;42.678;23.312;2023-04-03T14:44:50;0.60;;;0.60;;
5807;SDS011;2930;42.678;23.312;2023-04-03T14:47:18;0.47;;;0.47;;
5807;SDS011;2930;42.678;23.312;2023-04-03T14:49:46;2.20;;;0.60;;
5807;SDS011;2930;42.678;23.312;2023-04-03T14:52:19;0.53;;;0.53;;
5807;SDS011;2930;42.678;23.312;2023-04-03T14:54:48;0.53;;;0.53;;
5807;SDS011;2930;42.678;23.312;2023-04-03T14:57:15;0.63;;;0.63;;
5807;SDS011;2930;42.678;23.312;2023-04-03T14:59:41;0.50;;;0.50;;
5807;SDS011;2930;42.678;23.312;2023-04-03T15:05:01;0.43;;;0.43;;
5807;SDS011;2930;42.678;23.312;2023-04-03T15:07:33;1.90;;;0.60;;
5807;SDS011;2930;42.678;23.312;2023-04-03T15:10:13;0.80;;;0.80;;
5807;SDS011;2930;42.678;23.312;2023-04-03T15:12:39;1.00;;;1.00;;
5807;SDS011;2930;42.678;23.312;2023-04-03T15:15:06;0.60;;;0.60;;
5807;SDS011;2930;42.678;23.312;2023-04-03T15:17:32;0.40;;;0.40;;
5807;SDS011;2930;42.678;23.312;2023-04-03T15:19:59;0.73;;;0.40;;
5807;SDS011;2930;42.678;23.312;2023-04-03T15:22:25;0.60;;;0.60;;
5807;SDS011;2930;42.678;23.312;2023-04-03T15:24:51;0.50;;;0.50;;
5807;SDS011;2930;42.678;23.312;2023-04-03T15:27:17;0.30;;;0.30;;
5807;SDS011;2930;42.678;23.312;2023-04-03T15:29:43;0.60;;;0.60;;
5807;SDS011;2930;42.678;23.312;2023-04-03T15:32:10;0.40;;;0.40;;
5807;SDS011;2930;42.678;23.312;2023-04-03T15:34:37;0.30;;;0.30;;
5807;SDS011;2930;42.678;23.312;2023-04-03T15:37:03;0.30;;;0.30;;
5807;SDS011;2930;42.678;23.312;2023-04-03T15:39:30;0.60;;;0.37;;
5807;SDS011;2930;42.678;23.312;2023-04-03T15:41:56;0.40;;;0.40;;
5807;SDS011;2930;42.678;23.312;2023-04-03T15:44:30;0.53;;;0.50;;
5807;SDS011;2930;42.678;23.312;2023-04-03T15:46:57;0.33;;;0.33;;
5807;SDS011;2930;42.678;23.312;2023-04-03T15:49:24;0.33;;;0.33;;
5807;SDS011;2930;42.678;23.312;2023-04-03T15:51:50;0.50;;;0.50;;
5807;SDS011;2930;42.678;23.312;2023-04-03T15:54:15;0.60;;;0.60;;
5807;SDS011;2930;42.678;23.312;2023-04-03T15:56:41;0.40;;;0.40;;
5807;SDS011;2930;42.678;23.312;2023-04-03T15:59:07;0.37;;;0.37;;
5807;SDS011;2930;42.678;23.312;2023-04-03T16:01:33;0.50;;;0.50;;
5807;SDS011;2930;42.678;23.312;2023-04-03T16:03:59;0.30;;;0.30;;
5807;SDS011;2930;42.678;23.312;2023-04-03T16:06:25;0.40;;;0.40;;
5807;SDS011;2930;42.678;23.312;2023-04-03T16:08:54;0.30;;;0.30;;
5807;SDS011;2930;42.678;23.312;2023-04-03T16:11:22;0.40;;;0.40;;
5807;SDS011;2930;42.678;23.312;2023-04-03T16:13:50;0.40;;;0.40;;
5807;SDS011;2930;42.678;23.312;2023-04-03T16:16:16;0.37;;;0.37;;
5807;SDS011;2930;42.678;23.312;2023-04-03T16:18:41;0.70;;;0.70;;
5807;SDS011;2930;42.678;23.312;2023-04-03T16:21:07;0.47;;;0.47;;
5807;SDS011;2930;42.678;23.312;2023-04-03T16:23:34;0.30;;;0.30;;
5807;SDS011;2930;42.678;23.312;2023-04-03T16:26:00;0.53;;;0.53;;
5807;SDS011;2930;42.678;23.312;2023-04-03T16:28:26;0.47;;;0.47;;
5807;SDS011;2930;42.678;23.312;2023-04-03T16:30:52;0.30;;;0.30;;
5807;SDS011;2930;42.678;23.312;2023-04-03T16:33:17;3.87;;;0.47;;
5807;SDS011;2930;42.678;23.312;2023-04-03T16:35:46;0.37;;;0.37;;
5807;SDS011;2930;42.678;23.312;2023-04-03T16:38:13;0.40;;;0.40;;
5807;SDS011;2930;42.678;23.312;2023-04-03T16:40:40;0.80;;;0.40;;
5807;SDS011;2930;42.678;23.312;2023-04-03T16:43:06;0.50;;;0.50;;
5807;SDS011;2930;42.678;23.312;2023-04-03T16:45:31;0.40;;;0.40;;
5807;SDS011;2930;42.678;23.312;2023-04-03T16:47:57;0.30;;;0.30;;
5807;SDS011;2930;42.678;23.312;2023-04-03T16:50:23;0.57;;;0.53;;
5807;SDS011;2930;42.678;23.312;2023-04-03T16:52:49;0.33;;;0.33;;
5807;SDS011;2930;42.678;23.312;2023-04-03T16:55:15;0.50;;;0.50;;
5807;SDS011;2930;42.678;23.312;2023-04-03T16:57:41;0.60;;;0.60;;
5807;SDS011;2930;42.678;23.312;2023-04-03T17:00:06;0.83;;;0.63;;
5807;SDS011;2930;42.678;23.312;2023-04-03T17:02:33;0.50;;;0.50;;
5807;SDS011;2930;42.678;23.312;2023-04-03T17:04:59;0.97;;;0.50;;
5807;SDS011;2930;42.678;23.312;2023-04-03T17:07:25;0.50;;;0.50;;
5807;SDS011;2930;42.678;23.312;2023-04-03T17:09:51;0.50;;;0.50;;
5807;SDS011;2930;42.678;23.312;2023-04-03T17:12:18;0.40;;;0.40;;